Time;durP1;ratioP1;P1;durP2;ratioP2;P2;SDS_P1;SDS_P2;PMS_P1;PMS_P2;Temp;Humidity;BMP_temperature;BMP_pressure;BME280_temperature;BME280_humidity;BME280_pressure;Samples;Min_cycle;Max_cycle;Signal;HPM_P1;HPM_P2
2022/06/06 00:00:43;;;;;;;33.15;16.67;;;;;;;14.38;100.00;101284.50;5070934;28;20487;-69
2022/06/06 00:03:09;;;;;;;34.08;16.58;;;;;;;14.38;100.00;101285.34;5070715;28;20039;-69
2022/06/06 00:05:36;;;;;;;32.30;15.32;;;;;;;14.39;100.00;101281.63;5070976;28;20466;-69
2022/06/06 00:08:03;;;;;;;32.72;18.10;;;;;;;14.38;100.00;101277.31;5051205;28;20041;-69
2022/06/06 00:10:29;;;;;;;35.67;18.80;;;;;;;14.39;100.00;101278.94;5051463;28;20032;-69
2022/06/06 00:12:54;;;;;;;33.40;15.93;;;;;;;14.39;100.00;101275.44;5050943;28;20630;-69
2022/06/06 00:15:20;;;;;;;33.25;17.65;;;;;;;14.39;100.00;101276.25;5050988;28;20082;-69
2022/06/06 00:17:46;;;;;;;30.20;15.60;;;;;;;14.40;100.00;101285.94;5051285;28;20116;-69
2022/06/06 00:20:11;;;;;;;36.50;15.23;;;;;;;14.40;100.00;101274.38;5051385;28;20082;-70
2022/06/06 00:22:37;;;;;;;30.10;16.45;;;;;;;14.40;100.00;101272.53;5051332;28;20040;-69
2022/06/06 00:25:03;;;;;;;30.63;15.45;;;;;;;14.36;100.00;101271.31;5051477;28;20036;-69
2022/06/06 00:27:28;;;;;;;35.05;16.48;;;;;;;14.36;100.00;101276.69;5051308;28;20595;-70
2022/06/06 00:29:53;;;;;;;30.80;16.67;;;;;;;14.41;100.00;101281.44;5051158;28;20109;-70
2022/06/06 00:35:05;;;;;;;30.40;15.80;;;;;;;14.41;100.00;101274.19;5050578;28;20735;-70
2022/06/06 00:37:33;;;;;;;30.45;15.82;;;;;;;14.40;100.00;101269.84;5050865;28;20444;-70
2022/06/06 00:40:01;;;;;;;31.98;16.58;;;;;;;14.40;100.00;101269.84;5051090;28;20029;-71
2022/06/06 00:42:30;;;;;;;34.15;17.13;;;;;;;14.38;100.00;101263.03;5051160;28;20021;-70
2022/06/06 00:45:14;;;;;;;35.80;17.02;;;;;;;14.38;100.00;101280.00;5051227;28;20094;-69
2022/06/06 00:47:42;;;;;;;33.83;15.70;;;;;;;14.31;100.00;101279.16;5050086;28;20028;-69
2022/06/06 00:50:18;;;;;;;34.05;16.60;;;;;;;14.29;100.00;101270.50;5049982;28;20029;-69
2022/06/06 00:52:47;;;;;;;35.80;20.15;;;;;;;14.30;100.00;101268.63;5050273;28;20564;-70
2022/06/06 00:55:17;;;;;;;32.88;17.00;;;;;;;14.25;100.00;101256.69;5050369;28;20037;-69
2022/06/06 00:57:49;;;;;;;33.55;18.30;;;;;;;14.27;100.00;101263.69;5050523;28;20063;-70
2022/06/06 01:00:15;;;;;;;;;;;;;;;14.25;100.00;101256.69;5050946;28;20065;-69
2022/06/06 01:02:45;;;;;;;35.78;15.88;;;;;;;14.20;100.00;101252.97;5050589;28;19908;-69
2022/06/06 01:05:11;;;;;;;35.50;17.75;;;;;;;14.22;100.00;101262.47;5050514;28;20040;-69
2022/06/06 01:07:37;;;;;;;36.35;20.08;;;;;;;14.22;100.00;101258.97;5051002;28;20025;-69
2022/06/06 01:10:04;;;;;;;31.95;16.83;;;;;;;14.23;100.00;101268.69;5050377;28;20066;-69
2022/06/06 01:12:31;;;;;;;36.35;16.77;;;;;;;14.21;100.00;101263.50;5050473;28;20481;-65
2022/06/06 01:15:02;;;;;;;36.28;18.38;;;;;;;14.20;100.00;101255.66;5050225;28;20083;-66
2022/06/06 01:17:59;;;;;;;36.42;19.70;;;;;;;14.20;100.00;101261.88;5050334;28;20033;-66
2022/06/06 01:20:54;;;;;;;37.50;19.75;;;;;;;14.21;100.00;101268.06;5050265;28;20156;-65
2022/06/06 01:23:37;;;;;;;40.63;19.15;;;;;;;14.19;100.00;101264.75;5050207;28;20115;-66
2022/06/06 01:26:31;;;;;;;38.78;20.13;;;;;;;14.19;100.00;101259.38;5065360;28;20456;-66
2022/06/06 01:29:00;;;;;;;36.25;18.50;;;;;;;14.19;100.00;101254.03;5050137;28;20115;-66
2022/06/06 01:31:39;;;;;;;36.45;19.63;;;;;;;14.19;100.00;101259.38;5050043;28;20085;-66
2022/06/06 01:34:08;;;;;;;41.97;16.02;;;;;;;14.20;100.00;101261.88;5049766;28;20036;-66
2022/06/06 01:36:36;;;;;;;35.08;18.05;;;;;;;14.23;100.00;101268.69;5049266;28;20025;-66
2022/06/06 01:39:06;;;;;;;38.17;19.48;;;;;;;14.23;100.00;101272.19;5049756;28;20024;-66
2022/06/06 01:41:40;;;;;;;36.35;18.55;;;;;;;14.24;100.00;101267.63;5050000;28;20024;-66
2022/06/06 01:44:47;;;;;;;38.58;19.60;;;;;;;14.24;100.00;101265.75;5049811;28;20368;-66
2022/06/06 01:47:20;;;;;;;38.83;18.05;;;;;;;14.28;100.00;101266.19;5050014;28;20036;-66
2022/06/06 01:49:47;;;;;;;35.50;18.48;;;;;;;14.29;100.00;101270.50;5049253;28;20353;-66
2022/06/06 01:52:14;;;;;;;39.75;19.63;;;;;;;14.28;100.00;101262.66;5049567;28;20056;-66
2022/06/06 01:54:41;;;;;;;42.40;21.48;;;;;;;14.29;100.00;101269.69;5049368;28;20052;-66
2022/06/06 01:57:11;;;;;;;40.58;20.83;;;;;;;14.29;100.00;101257.09;5049421;28;20142;-66
2022/06/06 01:59:37;;;;;;;44.67;23.40;;;;;;;14.28;100.00;101255.44;5048928;28;20056;-66
2022/06/06 02:02:03;;;;;;;45.03;22.73;;;;;;;14.28;100.00;101255.44;5049591;28;20071;-66
2022/06/06 02:04:28;;;;;;;41.42;22.23;;;;;;;14.29;100.00;101249.03;5049545;28;20116;-66
2022/06/06 02:06:54;;;;;;;45.33;24.73;;;;;;;14.27;100.00;101244.91;5049692;28;20141;-66
2022/06/06 02:09:19;;;;;;;41.80;22.08;;;;;;;14.28;100.00;101234.00;5049561;28;20037;-66
2022/06/06 02:11:45;;;;;;;41.22;22.80;;;;;;;14.29;100.00;101241.00;5049451;28;20464;-64
2022/06/06 02:14:11;;;;;;;43.47;21.58;;;;;;;14.29;100.00;101238.31;5049454;28;20043;-66
2022/06/06 02:16:38;;;;;;;40.95;22.50;;;;;;;14.24;100.00;101224.69;5049488;28;20040;-65
2022/06/06 02:19:03;;;;;;;42.13;21.92;;;;;;;14.31;100.00;101232.75;5049513;28;20029;-65
2022/06/06 02:21:29;;;;;;;42.30;24.50;;;;;;;14.33;100.00;101239.53;5058973;28;20032;-66
2022/06/06 02:23:54;;;;;;;35.63;21.20;;;;;;;14.33;100.00;101233.34;5068415;28;20645;-66
2022/06/06 02:26:19;;;;;;;37.10;22.17;;;;;;;14.33;100.00;101225.28;5068691;28;20495;-66
2022/06/06 02:28:45;;;;;;;35.72;19.85;;;;;;;14.30;100.00;101223.84;5068384;28;20028;-65
2022/06/06 02:31:11;;;;;;;37.80;20.92;;;;;;;14.31;100.00;101228.19;5068537;28;20033;-66
2022/06/06 02:33:37;;;;;;;40.78;21.42;;;;;;;14.29;100.00;101222.22;5068199;28;20099;-66
2022/06/06 02:36:04;;;;;;;45.35;24.10;;;;;;;14.33;100.00;101227.97;5068268;28;20154;-66
2022/06/06 02:38:32;;;;;;;39.22;21.08;;;;;;;14.31;100.00;101222.00;5067821;28;20032;-65
2022/06/06 02:41:07;;;;;;;41.95;20.13;;;;;;;14.29;100.00;101219.53;5068025;28;20017;-65
2022/06/06 02:43:43;;;;;;;39.85;19.83;;;;;;;14.31;100.00;101220.16;5050147;28;20036;-66
2022/06/06 02:46:11;;;;;;;37.08;20.00;;;;;;;14.31;100.00;101225.50;5050410;28;20029;-66
2022/06/06 02:48:37;;;;;;;41.58;19.13;;;;;;;14.32;100.00;101229.81;5068386;28;20020;-67
2022/06/06 02:51:03;;;;;;;37.55;19.48;;;;;;;14.33;100.00;101220.75;5068025;28;20058;-65
2022/06/06 02:53:30;;;;;;;33.45;17.85;;;;;;;14.32;100.00;101221.78;5068145;28;20021;-65
2022/06/06 02:55:56;;;;;;;43.15;21.25;;;;;;;14.36;100.00;101214.16;5067917;28;20139;-64
2022/06/06 02:58:23;;;;;;;37.55;20.88;;;;;;;14.34;100.00;101218.91;5067538;28;20036;-64
2022/06/06 03:00:54;;;;;;;35.03;17.48;;;;;;;14.34;100.00;101219.72;5068187;28;20052;-65
2022/06/06 03:03:19;;;;;;;37.13;21.80;;;;;;;14.35;100.00;101215.16;5068210;28;20098;-64
2022/06/06 03:06:04;;;;;;;39.15;18.70;;;;;;;14.32;100.00;101221.78;5068266;28;20110;-65
2022/06/06 03:08:51;;;;;;;37.28;21.98;;;;;;;14.31;100.00;101225.50;5068175;28;20024;-64
2022/06/06 03:11:46;;;;;;;43.47;20.58;;;;;;;14.33;100.00;101217.22;5070098;28;20025;-65
2022/06/06 03:14:32;;;;;;;41.40;22.73;;;;;;;14.30;100.00;101217.66;5071907;28;20044;-65
2022/06/06 03:23:07;;;;;;;40.47;19.85;;;;;;;14.26;100.00;101236.06;5071778;28;20043;-65
2022/06/06 03:25:42;;;;;;;41.92;19.80;;;;;;;14.27;100.00;101231.50;5071527;28;20060;-65
2022/06/06 03:28:43;;;;;;;39.78;18.13;;;;;;;14.26;100.00;101228.00;5071890;28;20087;-65
2022/06/06 03:31:26;;;;;;;40.22;19.17;;;;;;;14.27;100.00;101229.63;4999071;28;20394;-65
2022/06/06 03:34:25;;;;;;;37.72;19.27;;;;;;;14.28;100.00;101225.09;5070611;28;20025;-65
2022/06/06 03:37:06;;;;;;;36.35;17.85;;;;;;;14.24;100.00;101230.88;5071437;28;20024;-65
2022/06/06 03:39:44;;;;;;;41.50;19.00;;;;;;;14.25;100.00;101234.38;5071418;28;20020;-65
2022/06/06 03:42:31;;;;;;;38.78;19.40;;;;;;;14.25;100.00;101237.06;5070774;28;20024;-65
2022/06/06 03:45:25;;;;;;;39.92;21.80;;;;;;;14.22;100.00;101235.63;5071168;28;20158;-65
2022/06/06 03:48:23;;;;;;;38.70;20.05;;;;;;;14.23;100.00;101237.28;5070958;28;20024;-65
2022/06/06 03:51:14;;;;;;;38.67;21.23;;;;;;;14.22;100.00;101235.63;5064076;28;20046;-64
2022/06/06 03:54:13;;;;;;;37.17;21.02;;;;;;;14.21;100.00;101243.91;5070504;28;20029;-65
2022/06/06 03:56:47;;;;;;;38.22;19.20;;;;;;;14.21;100.00;101241.22;5070870;28;20114;-65
2022/06/06 03:59:14;;;;;;;34.58;18.73;;;;;;;14.17;100.00;101239.97;5070653;28;20036;-65
2022/06/06 04:01:41;;;;;;;31.80;19.73;;;;;;;14.17;100.00;101242.66;5070816;28;20028;-65
2022/06/06 04:04:07;;;;;;;32.85;19.20;;;;;;;14.14;100.00;101243.09;5070806;28;20086;-65
2022/06/06 04:06:33;;;;;;;33.88;18.42;;;;;;;14.12;100.00;101243.31;5070821;28;20107;-65
2022/06/06 04:08:59;;;;;;;31.08;17.25;;;;;;;14.07;100.00;101250.31;5070749;28;20036;-65
2022/06/06 04:11:28;;;;;;;38.22;18.55;;;;;;;14.06;100.00;101251.38;5070760;28;20111;-65
2022/06/06 04:13:56;;;;;;;33.58;16.33;;;;;;;14.04;100.00;101254.25;5070499;28;20476;-65
2022/06/06 04:16:27;;;;;;;28.38;15.88;;;;;;;14.02;100.00;101256.34;5070728;28;20044;-65
2022/06/06 04:19:15;;;;;;;31.50;17.58;;;;;;;14.00;100.00;101251.16;5070680;28;20614;-65
2022/06/06 04:22:16;;;;;;;27.88;16.55;;;;;;;13.99;100.00;101262.94;5070253;28;20111;-66
2022/06/06 04:24:57;;;;;;;37.60;19.85;;;;;;;14.01;100.00;101252.81;5070325;28;20028;-66
2022/06/06 04:27:34;;;;;;;28.40;14.52;;;;;;;14.02;100.00;101264.38;5069635;28;20380;-66
2022/06/06 04:30:19;;;;;;;28.25;15.50;;;;;;;14.01;100.00;101266.22;5070343;28;20594;-66
2022/06/06 04:32:47;;;;;;;28.15;15.63;;;;;;;13.97;100.00;101262.31;5019097;28;20039;-66
2022/06/06 04:35:57;;;;;;;27.52;17.23;;;;;;;13.94;100.00;101275.34;5070333;28;20085;-66
2022/06/06 04:38:54;;;;;;;27.85;14.57;;;;;;;13.93;100.00;101273.66;5014973;28;20115;-66
2022/06/06 04:41:32;;;;;;;28.40;15.95;;;;;;;13.91;100.00;101273.03;5052387;28;20040;-66
2022/06/06 04:44:09;;;;;;;28.10;12.82;;;;;;;13.92;100.00;101285.44;5069860;28;20032;-66
2022/06/06 04:46:42;;;;;;;28.40;14.45;;;;;;;13.89;100.00;101281.31;5070084;28;20100;-66
2022/06/06 04:49:10;;;;;;;27.98;10.88;;;;;;;13.85;100.00;101285.44;5070104;28;20032;-66
2022/06/06 04:51:36;;;;;;;26.45;13.95;;;;;;;13.80;100.00;101290.59;5070439;28;20056;-66
2022/06/06 04:54:02;;;;;;;24.02;12.23;;;;;;;13.75;100.00;101290.38;5069873;28;20017;-66
2022/06/06 04:56:28;;;;;;;28.58;13.13;;;;;;;13.76;99.96;101286.69;5069813;28;20064;-66
2022/06/06 04:58:57;;;;;;;27.08;13.40;;;;;;;13.74;100.00;101283.38;5069953;28;20025;-66
2022/06/06 05:01:24;;;;;;;23.77;12.27;;;;;;;13.76;99.58;101284.00;5069840;28;20032;-66
2022/06/06 05:03:50;;;;;;;24.42;14.10;;;;;;;13.85;98.69;101281.94;5069752;28;20368;-66
2022/06/06 05:06:15;;;;;;;24.48;12.25;;;;;;;13.93;97.71;101282.53;5069727;28;20031;-66
2022/06/06 05:08:55;;;;;;;28.08;15.70;;;;;;;13.91;96.09;101278.41;5069687;28;20039;-66
2022/06/06 05:11:20;;;;;;;24.13;13.35;;;;;;;13.91;96.58;101279.25;5069701;28;20028;-66
2022/06/06 05:14:30;;;;;;;24.40;12.67;;;;;;;13.95;96.22;101282.34;5069393;28;20035;-66
2022/06/06 05:17:04;;;;;;;25.48;12.32;;;;;;;14.01;94.83;101276.94;5022217;28;20290;-66
2022/06/06 05:19:49;;;;;;;28.23;14.52;;;;;;;14.07;93.50;101290.56;5069450;28;20028;-66
2022/06/06 05:22:20;;;;;;;25.20;13.57;;;;;;;14.10;93.72;101274.88;5069453;28;20043;-66
2022/06/06 05:25:07;;;;;;;26.88;14.70;;;;;;;14.15;94.51;101279.63;5069369;28;20071;-66
2022/06/06 05:27:56;;;;;;;23.45;12.73;;;;;;;14.17;93.50;101288.28;5069430;28;20063;-66
2022/06/06 05:30:31;;;;;;;24.88;13.35;;;;;;;14.17;95.00;101283.75;5069307;28;20111;-66
2022/06/06 05:33:28;;;;;;;27.02;15.55;;;;;;;14.13;93.79;101293.25;5069393;28;20109;-66
2022/06/06 05:36:10;;;;;;;28.77;14.10;;;;;;;14.19;93.15;101280.84;5049272;28;20487;-66
2022/06/06 05:39:17;;;;;;;24.65;14.63;;;;;;;14.24;93.42;101297.97;5069212;28;20119;-66
2022/06/06 05:42:04;;;;;;;27.05;15.52;;;;;;;14.30;92.80;101301.66;5041537;28;20033;-66
2022/06/06 05:45:00;;;;;;;24.00;13.68;;;;;;;14.29;92.85;101302.69;5050001;28;21018;-66
2022/06/06 05:47:33;;;;;;;26.60;15.07;;;;;;;14.20;92.41;101301.25;5031976;28;20032;-66
2022/06/06 05:50:06;;;;;;;26.48;14.85;;;;;;;14.18;93.07;101311.41;5049995;28;20032;-67
2022/06/06 05:52:47;;;;;;;23.52;13.07;;;;;;;14.12;91.74;101305.03;5049913;28;20029;-66
2022/06/06 05:55:24;;;;;;;23.10;13.20;;;;;;;14.23;90.74;101312.41;5049809;28;20025;-66
2022/06/06 05:58:05;;;;;;;22.83;13.23;;;;;;;14.39;90.09;101316.50;5054518;28;20522;-66
2022/06/06 06:00:37;;;;;;;25.88;14.13;;;;;;;14.38;90.23;101311.34;5058229;28;20032;-66
2022/06/06 06:03:08;;;;;;;27.27;14.15;;;;;;;14.41;89.97;101319.81;5049859;28;20485;-66
2022/06/06 06:06:01;;;;;;;25.88;13.88;;;;;;;14.44;91.61;101315.88;5049642;28;20072;-66
2022/06/06 06:08:44;;;;;;;23.13;12.65;;;;;;;14.45;92.19;101306.78;5049620;28;20025;-66
2022/06/06 06:11:22;;;;;;;22.67;13.50;;;;;;;14.46;91.76;101313.78;5049696;28;20037;-66
2022/06/06 06:14:03;;;;;;;18.67;11.77;;;;;;;14.40;89.20;101309.28;5049718;28;20091;-66
2022/06/06 06:16:34;;;;;;;20.35;11.30;;;;;;;14.38;88.33;101311.34;5049627;28;20430;-66
2022/06/06 06:19:08;;;;;;;21.08;12.38;;;;;;;14.35;89.34;101317.94;5049558;28;20033;-66
2022/06/06 06:21:50;;;;;;;18.23;10.80;;;;;;;14.38;87.95;101317.56;5049563;28;20637;-66
2022/06/06 06:24:26;;;;;;;20.45;11.18;;;;;;;14.45;90.75;101318.34;5049555;28;20465;-66
2022/06/06 06:26:54;;;;;;;21.05;12.07;;;;;;;14.52;89.93;101318.34;5049494;28;20591;-66
2022/06/06 06:29:20;;;;;;;20.55;11.20;;;;;;;14.55;88.72;101326.00;5049561;28;20040;-66
2022/06/06 06:32:00;;;;;;;18.33;10.88;;;;;;;14.59;87.82;101329.06;5049467;28;20029;-66
2022/06/06 06:34:56;;;;;;;18.17;10.02;;;;;;;14.61;88.16;101332.38;5049554;28;20090;-66
2022/06/06 06:38:09;;;;;;;21.15;11.95;;;;;;;14.71;88.18;101337.31;5049422;28;20037;-66
2022/06/06 06:40:56;;;;;;;17.13;9.85;;;;;;;14.63;84.87;101331.13;4948907;28;20043;-66
2022/06/06 06:43:44;;;;;;;20.40;11.02;;;;;;;14.67;87.73;101336.88;4948825;28;20050;-66
2022/06/06 06:46:19;;;;;;;18.88;10.90;;;;;;;14.71;85.84;101342.66;5033311;28;20118;-67
2022/06/06 06:48:46;;;;;;;18.60;9.38;;;;;;;14.68;84.30;101349.28;5053294;28;20025;-66
2022/06/06 06:51:17;;;;;;;19.10;10.02;;;;;;;14.67;85.99;101353.84;5053357;28;20033;-65
2022/06/06 06:53:55;;;;;;;15.20;7.88;;;;;;;14.75;85.36;101349.25;5053189;28;20028;-66
2022/06/06 06:56:26;;;;;;;18.23;8.15;;;;;;;14.86;83.74;101357.47;5052646;28;20045;-65
2022/06/06 06:58:55;;;;;;;12.07;6.95;;;;;;;14.84;83.10;101342.63;5053131;28;20384;-66
2022/06/06 07:01:37;;;;;;;15.82;7.05;;;;;;;15.04;85.47;101347.91;5052815;28;20078;-66
2022/06/06 07:10:57;;;;;;;8.18;4.70;;;;;;;14.98;80.63;101359.50;5029380;28;20037;-66
2022/06/06 07:13:37;;;;;;;9.13;5.43;;;;;;;14.86;81.66;101362.03;5052811;28;20021;-64
2022/06/06 07:16:15;;;;;;;11.13;5.65;;;;;;;14.82;82.80;101360.81;5052393;28;20035;-65
2022/06/06 07:18:42;;;;;;;7.47;4.60;;;;;;;14.85;82.64;101360.38;5051500;28;20025;-64
2022/06/06 07:21:10;;;;;;;7.25;3.72;;;;;;;14.84;79.87;101364.91;5051690;28;20029;-65
2022/06/06 07:23:39;;;;;;;8.57;3.95;;;;;;;14.82;79.46;101358.13;5052098;28;20033;-65
2022/06/06 07:26:06;;;;;;;7.53;3.90;;;;;;;14.88;80.26;101357.25;5052508;28;20021;-65
2022/06/06 07:28:31;;;;;;;6.38;3.95;;;;;;;15.01;83.93;101345.63;5052725;28;20037;-65
2022/06/06 07:31:25;;;;;;;6.57;3.58;;;;;;;15.17;84.06;101344.31;5052504;28;20075;-65
2022/06/06 07:34:22;;;;;;;4.50;3.17;;;;;;;15.27;77.46;101355.44;5052354;28;20060;-64
2022/06/06 07:36:59;;;;;;;5.68;3.00;;;;;;;15.22;76.97;101357.94;5058461;28;20025;-65
2022/06/06 07:39:31;;;;;;;5.30;2.60;;;;;;;15.27;76.96;101364.34;5071409;28;20109;-65
2022/06/06 07:42:17;;;;;;;;;;;;;;;15.40;78.15;101365.28;5071584;28;20025;-65
2022/06/06 07:45:01;;;;;;;2.67;2.42;;;;;;;15.37;76.69;101371.91;5071039;28;19931;-64
2022/06/06 07:47:58;;;;;;;3.72;3.08;;;;;;;15.27;74.94;101368.88;5071311;28;20127;-65
2022/06/06 07:50:32;;;;;;;7.78;3.65;;;;;;;15.30;73.16;101373.81;5029710;28;20377;-64
2022/06/06 07:53:24;;;;;;;3.78;3.33;;;;;;;15.44;74.30;101372.69;5071206;28;20027;-64
2022/06/06 07:55:54;;;;;;;5.88;3.60;;;;;;;15.56;72.97;101379.03;5051856;28;20544;-64
2022/06/06 07:58:25;;;;;;;4.32;3.20;;;;;;;15.57;71.67;101363.72;5050258;28;20059;-64
2022/06/06 08:01:19;;;;;;;4.28;3.20;;;;;;;15.52;73.72;101369.75;5057440;28;20043;-65
2022/06/06 08:04:07;;;;;;;5.35;2.97;;;;;;;15.50;71.42;101376.38;5048653;28;20036;-64
2022/06/06 08:07:03;;;;;;;3.78;3.40;;;;;;;15.51;72.24;101370.81;5051436;28;20029;-64
2022/06/06 08:09:34;;;;;;;5.80;3.10;;;;;;;16.16;69.91;101373.22;5070773;28;20077;-64
2022/06/06 08:12:27;;;;;;;6.22;3.35;;;;;;;16.48;69.42;101366.91;5071058;28;20025;-64
2022/06/06 08:15:18;;;;;;;4.30;3.60;;;;;;;16.32;70.78;101371.00;5070655;28;20113;-64
2022/06/06 08:17:58;;;;;;;3.85;3.45;;;;;;;16.31;70.39;101369.38;5070850;28;20510;-64
2022/06/06 08:20:29;;;;;;;5.50;3.47;;;;;;;16.15;70.49;101368.88;5070709;28;20498;-65
2022/06/06 08:22:59;;;;;;;3.78;3.40;;;;;;;15.95;72.50;101370.91;5052173;28;20021;-64
2022/06/06 08:25:25;;;;;;;4.13;3.47;;;;;;;15.79;71.33;101369.59;5051471;28;20384;-69
2022/06/06 08:27:51;;;;;;;5.75;3.65;;;;;;;15.67;74.01;101368.63;5051471;28;20029;-65
2022/06/06 08:30:20;;;;;;;4.55;4.00;;;;;;;15.64;73.89;101361.84;5051303;28;20032;-64
2022/06/06 08:32:46;;;;;;;3.95;3.50;;;;;;;15.74;73.05;101366.72;5051030;28;20024;-65
2022/06/06 08:35:12;;;;;;;3.70;3.40;;;;;;;15.95;72.22;101362.84;5055582;28;20029;-66
2022/06/06 08:38:08;;;;;;;4.65;3.80;;;;;;;15.93;72.63;101355.00;5051379;28;20027;-65
2022/06/06 08:40:49;;;;;;;6.28;3.90;;;;;;;16.06;73.18;101354.09;5051245;28;20028;-65
2022/06/06 08:43:14;;;;;;;4.40;3.30;;;;;;;16.43;71.44;101349.56;5051120;28;20033;-64
2022/06/06 08:45:48;;;;;;;5.90;4.03;;;;;;;17.60;68.66;101340.41;5050595;28;20402;-65
2022/06/06 08:48:44;;;;;;;4.10;3.15;;;;;;;19.64;62.68;101338.50;5051108;28;20279;-65
2022/06/06 08:51:37;;;;;;;6.22;2.88;;;;;;;20.93;55.18;101341.19;5050895;28;20127;-65
2022/06/06 08:54:24;;;;;;;2.45;2.25;;;;;;;20.07;58.79;101350.59;5050878;28;20028;-65
2022/06/06 08:57:19;;;;;;;4.00;2.08;;;;;;;20.08;58.38;101346.81;5050701;28;20056;-65
2022/06/06 09:00:03;;;;;;;5.18;2.75;;;;;;;20.37;59.27;101344.00;5032152;28;20063;-65
2022/06/06 09:03:07;;;;;;;6.45;2.47;;;;;;;19.81;61.00;101325.03;5032845;28;20379;-66
2022/06/06 09:05:45;;;;;;;3.13;1.88;;;;;;;19.06;60.11;101334.22;5050408;28;20060;-66
2022/06/06 09:08:46;;;;;;;2.95;1.67;;;;;;;18.64;61.29;101331.75;5050401;28;20033;-66
2022/06/06 09:11:39;;;;;;;1.63;1.33;;;;;;;18.36;62.14;101343.28;5050560;28;20098;-66
2022/06/06 09:14:18;;;;;;;3.45;1.90;;;;;;;18.06;64.47;101338.84;5050428;28;20140;-66
2022/06/06 09:16:55;;;;;;;2.58;1.80;;;;;;;17.75;65.21;101338.09;5069495;28;20028;-66
2022/06/06 09:19:39;;;;;;;3.35;2.67;;;;;;;17.66;65.98;101341.38;5069471;28;20034;-67
2022/06/06 09:22:35;;;;;;;4.82;2.67;;;;;;;17.80;64.85;101348.22;5069370;28;20021;-67
2022/06/06 09:25:28;;;;;;;7.28;2.90;;;;;;;17.99;66.05;101342.72;5068640;28;20135;-66
2022/06/06 09:28:13;;;;;;;6.22;2.30;;;;;;;17.81;65.83;101341.75;5069459;28;20028;-66
2022/06/06 09:31:02;;;;;;;6.75;2.30;;;;;;;17.65;67.50;101334.31;5051477;28;20024;-66
2022/06/06 09:33:33;;;;;;;4.75;3.10;;;;;;;17.64;65.85;101332.69;5069345;28;20028;-66
2022/06/06 09:36:40;;;;;;;3.65;2.80;;;;;;;17.53;64.75;101326.22;5069352;28;20028;-70
2022/06/06 09:39:13;;;;;;;8.30;3.17;;;;;;;17.20;65.58;101330.22;4968069;28;20153;-66
2022/06/06 09:42:06;;;;;;;4.88;2.65;;;;;;;16.92;67.90;101333.47;4949461;28;20107;-66
2022/06/06 09:44:43;;;;;;;7.25;3.13;;;;;;;16.92;70.28;101324.59;5021337;28;20071;-66
2022/06/06 09:47:46;;;;;;;3.15;2.13;;;;;;;17.16;68.88;101325.50;5049687;28;20041;-66
2022/06/06 09:50:29;;;;;;;3.30;2.28;;;;;;;17.47;71.33;101306.38;5031742;28;20412;-66
2022/06/06 09:53:08;;;;;;;4.18;2.60;;;;;;;17.65;68.78;101307.34;5049924;28;20036;-66
2022/06/06 09:59:32;;;;;;;2.83;2.22;;;;;;;18.39;68.70;101305.84;5067527;28;20105;-66
2022/06/06 10:02:06;;;;;;;5.35;2.25;;;;;;;18.61;65.66;101303.31;5049014;28;20067;-66
2022/06/06 10:04:43;;;;;;;2.55;1.65;;;;;;;18.83;60.53;101310.81;5049699;28;20033;-66
2022/06/06 10:07:20;;;;;;;2.30;1.20;;;;;;;18.97;61.96;101297.84;5049378;28;20413;-66
2022/06/06 10:10:27;;;;;;;4.28;1.45;;;;;;;19.12;61.79;101294.59;5049647;28;20040;-66
2022/06/06 10:13:13;;;;;;;1.30;1.20;;;;;;;19.37;60.93;101289.63;5049144;28;20040;-66
2022/06/06 10:15:41;;;;;;;3.60;1.35;;;;;;;19.28;59.10;101288.38;5049322;28;20028;-66
2022/06/06 10:18:16;;;;;;;2.83;1.23;;;;;;;19.01;56.60;101285.47;5049649;28;20451;-66
2022/06/06 10:21:15;;;;;;;1.50;1.38;;;;;;;18.74;58.88;101291.44;5049115;28;20079;-66
2022/06/06 10:24:12;;;;;;;1.95;1.13;;;;;;;18.73;60.00;101281.69;5049506;28;20388;-65
2022/06/06 10:27:08;;;;;;;2.15;1.77;;;;;;;18.87;60.36;101278.72;5049417;28;20021;-66
2022/06/06 10:30:12;;;;;;;2.05;1.50;;;;;;;19.32;61.36;101281.44;5049481;28;20025;-66
2022/06/06 10:32:59;;;;;;;3.95;1.92;;;;;;;19.22;59.03;101286.66;5026487;28;20145;-66
2022/06/06 10:35:37;;;;;;;1.85;1.40;;;;;;;18.92;58.55;101274.25;5049566;28;20079;-66
2022/06/06 10:38:05;;;;;;;2.30;1.70;;;;;;;18.75;59.96;101271.47;5049406;28;20025;-66
2022/06/06 10:40:49;;;;;;;1.60;1.50;;;;;;;18.66;60.16;101281.00;5049404;28;21121;-66
2022/06/06 10:43:38;;;;;;;3.58;1.25;;;;;;;18.91;59.66;101290.69;5061823;28;20032;-65
2022/06/06 10:46:10;;;;;;;2.58;1.90;;;;;;;19.08;60.51;101291.56;5068020;28;20037;-66
2022/06/06 10:48:54;;;;;;;3.05;1.38;;;;;;;19.00;59.74;101292.78;5050469;28;20028;-66
2022/06/06 10:51:45;;;;;;;3.08;1.80;;;;;;;19.14;60.24;101287.06;5053423;28;20519;-66
2022/06/06 10:54:18;;;;;;;5.45;2.05;;;;;;;19.03;57.93;101294.97;5049410;28;20040;-65
2022/06/06 10:57:14;;;;;;;1.52;1.42;;;;;;;18.83;60.75;101283.78;5048878;28;20061;-66
2022/06/06 11:00:04;;;;;;;3.80;1.60;;;;;;;18.67;60.32;101289.94;5068372;28;20031;-66
2022/06/06 11:02:42;;;;;;;2.63;2.42;;;;;;;18.49;59.44;101289.03;5068041;28;20036;-66
2022/06/06 11:05:52;;;;;;;3.28;2.05;;;;;;;18.60;60.48;101284.66;5068332;28;20029;-65
2022/06/06 11:08:26;;;;;;;1.50;1.40;;;;;;;18.79;60.37;101280.75;5042744;28;20047;-67
2022/06/06 11:11:10;;;;;;;1.65;1.55;;;;;;;18.85;60.47;101283.56;5068220;28;20032;-67
2022/06/06 11:13:54;;;;;;;2.42;1.25;;;;;;;18.90;58.51;101275.53;5068250;28;20566;-65
2022/06/06 11:16:49;;;;;;;3.33;1.77;;;;;;;19.12;61.21;101267.56;5068418;28;20029;-66
2022/06/06 11:19:52;;;;;;;2.75;1.17;;;;;;;19.31;58.06;101279.81;5068245;28;20055;-65
2022/06/06 11:22:46;;;;;;;3.03;1.77;;;;;;;19.28;57.13;101269.44;5068241;28;20032;-66
2022/06/06 11:25:14;;;;;;;4.40;1.75;;;;;;;19.27;58.15;101265.13;4974023;28;20546;-67
2022/06/06 11:28:15;;;;;;;2.85;1.45;;;;;;;19.23;57.87;101256.69;5048900;28;20459;-66
2022/06/06 11:31:07;;;;;;;1.35;1.25;;;;;;;19.50;57.69;101245.22;5048858;28;20051;-66
2022/06/06 11:33:42;;;;;;;7.22;1.42;;;;;;;19.58;55.92;101235.88;5052430;28;20028;-65
2022/06/06 11:36:44;;;;;;;3.97;1.30;;;;;;;19.67;56.01;101232.50;5034635;28;20380;-66
2022/06/06 11:39:46;;;;;;;3.50;1.77;;;;;;;19.69;56.19;101246.63;5033924;28;20037;-66
2022/06/06 11:42:24;;;;;;;1.45;1.35;;;;;;;19.79;58.11;101251.38;5051134;28;20025;-66
2022/06/06 11:45:02;;;;;;;2.25;1.05;;;;;;;19.69;55.39;101237.69;5051602;28;20858;-66
2022/06/06 11:47:45;;;;;;;2.92;1.60;;;;;;;19.64;57.38;101238.38;5052297;28;20495;-65
2022/06/06 11:50:35;;;;;;;1.20;1.10;;;;;;;19.68;58.16;101239.56;5052240;28;20028;-66
2022/06/06 11:53:38;;;;;;;3.55;1.52;;;;;;;19.70;57.85;101244.72;5065719;28;20173;-66
2022/06/06 11:56:26;;;;;;;1.58;1.15;;;;;;;19.65;55.45;101261.69;5059686;28;20060;-66
2022/06/06 11:59:11;;;;;;;4.18;1.60;;;;;;;19.23;55.47;101264.78;5052069;28;20029;-66
2022/06/06 12:02:02;;;;;;;1.95;1.17;;;;;;;18.88;56.23;101258.75;5051968;28;20036;-67
2022/06/06 12:05:02;;;;;;;4.72;2.65;;;;;;;18.56;58.00;101254.59;5010465;28;20484;-65
2022/06/06 12:07:52;;;;;;;6.10;2.08;;;;;;;18.36;58.66;101260.41;5013846;28;20040;-65
2022/06/06 12:10:25;;;;;;;2.13;1.58;;;;;;;18.18;58.89;101257.84;5051651;28;20045;-66
2022/06/06 12:13:29;;;;;;;3.22;1.20;;;;;;;18.26;59.33;101262.91;5051534;28;20036;-66
2022/06/06 12:16:19;;;;;;;7.88;1.40;;;;;;;18.24;58.64;101264.19;5051916;28;20127;-65
2022/06/06 12:18:59;;;;;;;1.48;1.38;;;;;;;18.18;57.72;101256.00;5051586;28;20104;-65
2022/06/06 12:21:40;;;;;;;1.70;1.10;;;;;;;18.07;58.35;101259.50;5051573;28;20123;-65
2022/06/06 12:24:30;;;;;;;2.72;1.52;;;;;;;17.96;58.23;101258.47;5051456;28;20043;-65
2022/06/06 12:27:14;;;;;;;4.03;1.27;;;;;;;17.84;58.69;101257.66;5051509;28;20039;-65